Time;durP1;ratioP1;P1;durP2;ratioP2;P2;SDS_P1;SDS_P2;PMS_P1;PMS_P2;Temp;Humidity;BMP_temperature;BMP_pressure;BME280_temperature;BME280_humidity;BME280_pressure;Samples;Min_cycle;Max_cycle;Signal;HPM_P1;HPM_P2
2021/10/08 00:00:40;;;;;;;7.75;5.50;;;11.10;99.90;;;;;;5037987;28;20354;-77
2021/10/08 00:03:05;;;;;;;10.32;5.72;;;11.10;99.90;;;;;;5024692;28;20471;-76
2021/10/08 00:05:31;;;;;;;6.82;4.80;;;11.00;99.90;;;;;;5041797;28;20025;-76
2021/10/08 00:07:59;;;;;;;10.02;5.68;;;11.00;99.90;;;;;;5045577;28;20032;-76
2021/10/08 00:10:24;;;;;;;12.32;7.88;;;11.00;99.90;;;;;;5043079;28;20037;-74
2021/10/08 00:12:50;;;;;;;9.63;5.82;;;11.00;99.90;;;;;;5037453;28;20542;-76
2021/10/08 00:15:16;;;;;;;10.85;5.60;;;11.00;99.90;;;;;;5038316;28;20193;-76
2021/10/08 00:17:42;;;;;;;6.95;5.05;;;11.00;99.90;;;;;;5032685;28;20516;-76
2021/10/08 00:20:08;;;;;;;7.25;5.22;;;11.00;99.90;;;;;;5040779;28;20091;-75
2021/10/08 00:22:34;;;;;;;7.80;4.82;;;11.00;99.90;;;;;;5041946;28;20028;-76
2021/10/08 00:25:00;;;;;;;10.15;5.85;;;10.90;99.90;;;;;;5052580;28;20027;-76
2021/10/08 00:27:26;;;;;;;7.85;4.95;;;10.90;99.90;;;;;;5044580;28;20490;-76
2021/10/08 00:29:51;;;;;;;11.30;5.40;;;10.90;99.90;;;;;;5044773;28;20523;-75
2021/10/08 00:32:17;;;;;;;8.18;5.00;;;10.90;99.90;;;;;;5039671;28;20033;-74
2021/10/08 00:34:43;;;;;;;9.70;5.05;;;10.90;99.90;;;;;;5052142;28;20487;-77
2021/10/08 00:37:09;;;;;;;10.00;5.15;;;10.90;99.90;;;;;;5039467;28;20521;-77
2021/10/08 00:39:35;;;;;;;8.48;5.30;;;10.80;99.90;;;;;;5032231;28;20041;-77
2021/10/08 00:42:04;;;;;;;7.93;5.10;;;10.80;99.90;;;;;;5034241;28;20232;-77
2021/10/08 00:44:30;;;;;;;9.48;5.35;;;10.80;99.90;;;;;;5043096;28;20033;-77
2021/10/08 00:46:57;;;;;;;8.73;5.07;;;10.80;99.90;;;;;;5046330;28;20028;-76
2021/10/08 00:49:23;;;;;;;7.47;5.40;;;10.70;99.90;;;;;;5035126;28;20564;-77
2021/10/08 00:51:49;;;;;;;10.48;4.90;;;10.70;99.90;;;;;;5032571;28;20041;-77
2021/10/08 00:54:15;;;;;;;7.82;4.55;;;10.80;99.90;;;;;;5052215;28;20897;-77
2021/10/08 00:56:41;;;;;;;8.63;4.90;;;10.70;99.90;;;;;;5052928;28;20025;-76
2021/10/08 00:59:07;;;;;;;8.07;5.13;;;10.70;99.90;;;;;;5042705;28;20059;-77
2021/10/08 01:01:33;;;;;;;9.52;5.72;;;10.70;99.90;;;;;;5040365;28;20018;-76
2021/10/08 01:03:59;;;;;;;8.82;5.50;;;10.70;99.90;;;;;;5027359;28;20049;-76
2021/10/08 01:06:25;;;;;;;7.75;5.38;;;10.60;99.90;;;;;;5051588;28;20021;-76
2021/10/08 01:08:50;;;;;;;8.20;4.90;;;10.70;99.90;;;;;;5033546;28;20142;-76
2021/10/08 01:11:20;;;;;;;7.97;5.15;;;10.60;99.90;;;;;;5031176;28;20018;-75
2021/10/08 01:13:47;;;;;;;8.57;5.65;;;10.60;99.90;;;;;;5031526;28;20382;-76
2021/10/08 01:16:14;;;;;;;7.70;5.05;;;10.60;99.90;;;;;;5042482;28;20037;-76
2021/10/08 01:18:39;;;;;;;8.07;5.22;;;10.60;99.90;;;;;;5037003;28;20051;-77
2021/10/08 01:21:05;;;;;;;7.82;4.85;;;10.60;99.90;;;;;;5046042;28;20485;-77
2021/10/08 01:23:31;;;;;;;6.50;4.70;;;10.60;99.90;;;;;;5033423;28;20025;-77
2021/10/08 01:25:57;;;;;;;9.88;5.40;;;10.60;99.90;;;;;;5033779;28;20078;-76
2021/10/08 01:28:23;;;;;;;7.40;4.60;;;10.60;99.90;;;;;;5047057;28;20033;-75
2021/10/08 01:30:49;;;;;;;8.90;5.82;;;10.60;99.90;;;;;;5040496;28;20063;-76
2021/10/08 01:33:16;;;;;;;5.95;4.25;;;10.60;99.90;;;;;;5042484;28;20029;-75
2021/10/08 01:35:42;;;;;;;7.32;4.80;;;10.60;99.90;;;;;;5041748;28;20033;-76
2021/10/08 01:38:07;;;;;;;7.88;4.93;;;10.50;99.90;;;;;;5047495;28;20032;-76
2021/10/08 01:40:34;;;;;;;9.55;5.22;;;10.50;99.90;;;;;;5033740;28;20090;-76
2021/10/08 01:43:00;;;;;;;6.50;4.68;;;10.50;99.90;;;;;;5037792;28;20483;-75
2021/10/08 01:45:26;;;;;;;8.27;4.63;;;10.50;99.90;;;;;;5048544;28;20040;-76
2021/10/08 01:47:52;;;;;;;8.18;4.80;;;10.40;99.90;;;;;;5052242;28;20100;-76
2021/10/08 01:50:18;;;;;;;8.50;5.07;;;10.40;99.90;;;;;;5046847;28;20029;-77
2021/10/08 01:52:43;;;;;;;7.28;5.00;;;10.40;99.90;;;;;;5047528;28;20090;-76
2021/10/08 01:55:09;;;;;;;7.05;4.80;;;10.40;99.90;;;;;;5045889;28;20025;-77
2021/10/08 01:57:35;;;;;;;9.40;5.07;;;10.40;99.90;;;;;;5014604;28;20076;-76
2021/10/08 02:00:01;;;;;;;8.73;4.78;;;10.40;99.90;;;;;;5043964;28;20029;-77
2021/10/08 02:02:27;;;;;;;6.70;4.78;;;10.40;99.90;;;;;;5048578;28;20026;-76
2021/10/08 02:04:52;;;;;;;8.25;5.47;;;10.30;99.90;;;;;;5043257;28;20112;-77
2021/10/08 02:07:18;;;;;;;7.05;5.13;;;10.30;99.90;;;;;;5043236;28;20029;-75
2021/10/08 02:09:44;;;;;;;7.40;4.78;;;10.30;99.90;;;;;;5043442;28;20036;-76
2021/10/08 02:12:11;;;;;;;9.68;5.88;;;10.30;99.90;;;;;;5033863;28;20091;-76
2021/10/08 02:14:37;;;;;;;8.32;5.00;;;10.20;99.90;;;;;;5041641;28;20033;-76
2021/10/08 02:17:03;;;;;;;7.63;4.60;;;10.20;99.90;;;;;;5032093;28;20553;-77
2021/10/08 02:19:28;;;;;;;8.18;4.88;;;10.20;99.90;;;;;;5047220;28;20025;-76
2021/10/08 02:21:54;;;;;;;8.68;4.93;;;10.20;99.90;;;;;;5051765;28;20087;-77
2021/10/08 02:24:20;;;;;;;8.43;5.60;;;10.20;99.90;;;;;;5044007;28;20029;-77
2021/10/08 02:26:46;;;;;;;7.25;4.78;;;10.20;99.90;;;;;;5030746;28;20108;-77
2021/10/08 02:29:11;;;;;;;7.40;5.05;;;10.20;99.90;;;;;;5047132;28;20043;-77
2021/10/08 02:31:37;;;;;;;7.07;4.93;;;10.20;99.90;;;;;;5050881;28;20394;-76
2021/10/08 02:34:04;;;;;;;10.07;5.10;;;10.20;99.90;;;;;;5032416;28;20111;-76
2021/10/08 02:36:30;;;;;;;5.53;4.40;;;10.20;99.90;;;;;;5033931;28;20494;-77
2021/10/08 02:38:55;;;;;;;7.75;4.80;;;10.20;99.90;;;;;;5025297;28;20025;-77
2021/10/08 02:41:22;;;;;;;9.60;5.82;;;10.10;99.90;;;;;;5040821;28;20483;-76
2021/10/08 02:43:48;;;;;;;10.00;5.25;;;10.10;99.90;;;;;;5021461;28;20422;-76
2021/10/08 02:46:15;;;;;;;6.68;4.60;;;10.10;99.90;;;;;;5031928;28;20120;-76
2021/10/08 02:48:41;;;;;;;8.38;5.22;;;10.10;99.90;;;;;;5031617;28;20060;-75
2021/10/08 02:51:08;;;;;;;6.47;4.47;;;10.00;99.90;;;;;;5015481;28;20026;-75
2021/10/08 02:53:34;;;;;;;6.45;4.10;;;10.00;99.90;;;;;;5031524;28;20044;-76
2021/10/08 02:55:59;;;;;;;7.45;5.18;;;10.00;99.90;;;;;;5031574;28;20037;-76
2021/10/08 02:58:25;;;;;;;7.88;4.97;;;10.00;99.90;;;;;;5040091;28;20033;-76
2021/10/08 03:00:51;;;;;;;6.60;4.53;;;10.00;99.90;;;;;;5032365;28;20028;-77
2021/10/08 03:03:17;;;;;;;7.88;4.60;;;10.00;99.90;;;;;;5035421;28;20117;-77
2021/10/08 03:05:44;;;;;;;7.93;4.70;;;10.00;99.90;;;;;;4998254;28;20472;-76
2021/10/08 03:08:09;;;;;;;8.73;4.82;;;10.00;99.90;;;;;;5051388;28;20033;-76
2021/10/08 03:10:36;;;;;;;8.02;4.72;;;10.00;99.90;;;;;;5051198;28;20446;-77
2021/10/08 03:13:02;;;;;;;6.70;4.53;;;10.00;99.90;;;;;;5051409;28;20068;-76
2021/10/08 03:15:29;;;;;;;7.65;4.85;;;10.00;99.90;;;;;;5034106;28;20025;-76
2021/10/08 03:17:55;;;;;;;7.05;4.63;;;10.00;99.90;;;;;;5032008;28;20426;-77
2021/10/08 03:20:20;;;;;;;7.75;5.10;;;9.90;99.90;;;;;;5032054;28;20033;-76
2021/10/08 03:22:47;;;;;;;6.18;4.47;;;9.90;99.90;;;;;;5030579;28;20075;-77
2021/10/08 03:25:12;;;;;;;8.35;4.82;;;9.90;99.90;;;;;;5031934;28;20476;-77
2021/10/08 03:27:40;;;;;;;7.72;5.30;;;9.90;99.90;;;;;;5031099;28;20033;-77
2021/10/08 03:30:09;;;;;;;7.65;4.72;;;9.90;99.90;;;;;;5031429;28;20038;-77
2021/10/08 03:32:35;;;;;;;8.82;4.85;;;9.90;99.90;;;;;;5039736;28;20029;-77
2021/10/08 03:35:00;;;;;;;8.05;5.50;;;9.90;99.90;;;;;;5040493;28;20487;-77
2021/10/08 03:37:35;;;;;;;8.52;5.65;;;9.80;99.90;;;;;;5048594;28;20040;-76
2021/10/08 03:40:01;;;;;;;8.70;4.80;;;9.90;99.90;;;;;;5031092;28;20029;-76
2021/10/08 03:42:27;;;;;;;6.88;4.90;;;9.90;99.90;;;;;;5036865;28;20029;-75
2021/10/08 03:44:57;;;;;;;7.45;5.07;;;9.90;99.90;;;;;;5037314;28;20029;-75
2021/10/08 03:47:29;;;;;;;9.35;5.22;;;9.90;99.90;;;;;;5031500;28;20018;-77
2021/10/08 03:49:54;;;;;;;6.55;4.93;;;9.90;99.90;;;;;;5048535;28;20376;-75
2021/10/08 03:52:20;;;;;;;8.77;5.43;;;9.90;99.90;;;;;;5043268;28;20483;-76
2021/10/08 03:54:46;;;;;;;6.70;4.45;;;9.80;99.90;;;;;;5041357;28;20033;-75
2021/10/08 03:57:11;;;;;;;7.57;4.82;;;9.80;99.90;;;;;;5033011;28;20040;-76
2021/10/08 03:59:37;;;;;;;6.88;4.53;;;9.80;99.90;;;;;;5049559;28;20056;-75
2021/10/08 04:02:03;;;;;;;7.18;5.20;;;9.80;99.90;;;;;;5051434;28;20025;-75
2021/10/08 04:04:28;;;;;;;7.90;4.95;;;9.80;99.90;;;;;;5042951;28;20033;-75
2021/10/08 04:06:54;;;;;;;9.73;5.30;;;9.80;99.90;;;;;;5045617;28;20022;-74
2021/10/08 04:09:20;;;;;;;8.10;5.18;;;9.80;99.90;;;;;;5040995;28;20036;-75
2021/10/08 04:11:45;;;;;;;7.57;5.05;;;9.80;99.90;;;;;;5052387;28;20025;-76
2021/10/08 04:14:11;;;;;;;8.70;4.90;;;9.70;99.90;;;;;;5039706;28;20061;-77
2021/10/08 04:16:37;;;;;;;7.22;4.50;;;9.70;99.90;;;;;;5032425;28;20034;-75
2021/10/08 04:19:04;;;;;;;6.88;4.80;;;9.70;99.90;;;;;;5032251;28;20037;-75
2021/10/08 04:21:30;;;;;;;9.15;5.07;;;9.60;99.90;;;;;;5025801;28;20032;-76
2021/10/08 04:23:56;;;;;;;7.75;5.13;;;9.60;99.90;;;;;;5042187;28;20104;-75
2021/10/08 04:26:22;;;;;;;6.97;4.57;;;9.60;99.90;;;;;;5040793;28;20017;-76
2021/10/08 04:28:47;;;;;;;7.72;4.97;;;9.60;99.90;;;;;;5051613;28;20388;-75
2021/10/08 04:31:13;;;;;;;9.15;5.47;;;9.60;99.90;;;;;;5038783;28;20033;-76
2021/10/08 04:33:39;;;;;;;7.13;4.75;;;9.60;99.90;;;;;;5032246;28;20104;-75
2021/10/08 04:36:05;;;;;;;8.98;5.60;;;9.60;99.90;;;;;;5037051;28;20490;-75
2021/10/08 04:38:32;;;;;;;9.20;5.60;;;9.60;99.90;;;;;;5046232;28;20033;-75
2021/10/08 04:40:59;;;;;;;7.15;5.13;;;9.60;99.90;;;;;;5036232;28;20076;-75
2021/10/08 04:43:25;;;;;;;9.25;5.57;;;9.60;99.90;;;;;;5032318;28;20032;-75
2021/10/08 04:45:50;;;;;;;9.40;5.90;;;9.60;99.90;;;;;;5042195;28;20394;-76
2021/10/08 04:48:17;;;;;;;10.45;5.65;;;9.60;99.90;;;;;;5052134;28;20036;-76
2021/10/08 04:50:43;;;;;;;7.38;4.70;;;9.60;99.90;;;;;;5051907;28;20052;-77
2021/10/08 04:53:23;;;;;;;7.38;4.82;;;9.50;99.90;;;;;;5046900;28;20356;-76
2021/10/08 04:55:50;;;;;;;8.15;5.22;;;9.50;99.90;;;;;;5043526;28;20017;-75
2021/10/08 04:58:17;;;;;;;8.50;5.40;;;9.50;99.90;;;;;;5043016;28;20029;-75
2021/10/08 05:00:43;;;;;;;12.80;5.82;;;9.50;99.90;;;;;;5039818;28;20037;-75
2021/10/08 05:03:17;;;;;;;8.45;5.70;;;9.50;99.90;;;;;;5031620;28;20029;-77
2021/10/08 05:05:47;;;;;;;8.38;5.53;;;9.50;99.90;;;;;;5049239;28;20341;-75
2021/10/08 05:08:15;;;;;;;8.65;5.32;;;9.50;99.90;;;;;;5051823;28;20029;-75
2021/10/08 05:10:41;;;;;;;9.13;5.95;;;9.50;99.90;;;;;;5022268;28;20112;-77
2021/10/08 05:13:07;;;;;;;9.77;5.30;;;9.40;99.90;;;;;;5044645;28;20112;-76
2021/10/08 05:15:33;;;;;;;9.98;6.28;;;9.50;99.90;;;;;;5032666;28;20108;-76
2021/10/08 05:17:58;;;;;;;8.95;5.97;;;9.50;99.90;;;;;;5039681;28;20033;-75
2021/10/08 05:20:24;;;;;;;8.90;5.30;;;9.50;99.90;;;;;;5043703;28;20052;-75
2021/10/08 05:22:50;;;;;;;8.20;6.00;;;9.50;99.90;;;;;;5040229;28;20384;-75
2021/10/08 05:25:16;;;;;;;6.85;4.78;;;9.50;99.90;;;;;;5033060;28;20037;-76
2021/10/08 05:27:43;;;;;;;8.43;5.88;;;9.50;99.90;;;;;;5037506;28;20025;-75
2021/10/08 05:30:09;;;;;;;9.45;5.90;;;9.50;99.90;;;;;;5047239;28;20025;-74
2021/10/08 05:32:35;;;;;;;9.40;5.35;;;9.50;99.90;;;;;;5032863;28;20037;-74
2021/10/08 05:35:01;;;;;;;8.75;5.85;;;9.40;99.90;;;;;;5040160;28;20029;-78
2021/10/08 05:37:27;;;;;;;10.93;5.55;;;9.50;99.90;;;;;;5029922;28;20040;-74
2021/10/08 05:39:52;;;;;;;7.32;5.30;;;9.40;99.90;;;;;;5031292;28;20040;-74
2021/10/08 05:42:18;;;;;;;11.23;5.72;;;9.40;99.90;;;;;;5035846;28;20033;-75
2021/10/08 05:44:44;;;;;;;9.13;6.05;;;9.40;99.90;;;;;;5041873;28;20025;-74
2021/10/08 05:47:09;;;;;;;10.95;5.53;;;9.40;99.90;;;;;;5022051;28;20049;-75
2021/10/08 05:49:35;;;;;;;9.90;6.55;;;9.30;99.90;;;;;;5040280;28;20117;-75
2021/10/08 05:52:01;;;;;;;11.65;7.05;;;9.30;99.90;;;;;;5030169;28;20033;-75
2021/10/08 05:54:26;;;;;;;15.85;8.27;;;9.30;99.90;;;;;;5046057;28;20029;-74
2021/10/08 05:56:52;;;;;;;14.30;6.95;;;9.40;99.90;;;;;;5050349;28;20028;-74
2021/10/08 05:59:18;;;;;;;17.60;8.07;;;9.30;99.90;;;;;;5046836;28;20036;-74
2021/10/08 06:01:44;;;;;;;16.92;7.95;;;9.40;99.90;;;;;;5038001;28;20029;-75
2021/10/08 06:04:09;;;;;;;12.70;7.93;;;9.50;99.90;;;;;;5039935;28;20095;-74
2021/10/08 06:06:35;;;;;;;13.77;8.00;;;9.40;99.90;;;;;;5040727;28;20386;-75
2021/10/08 06:09:02;;;;;;;15.23;7.60;;;9.50;99.90;;;;;;5051191;28;20478;-74
2021/10/08 06:11:32;;;;;;;13.73;6.63;;;9.60;99.90;;;;;;5034739;28;20491;-75
2021/10/08 06:13:57;;;;;;;15.55;6.97;;;9.60;99.90;;;;;;5030838;28;20026;-75
2021/10/08 06:16:23;;;;;;;12.15;6.82;;;9.60;99.90;;;;;;5032556;28;20271;-75
2021/10/08 06:18:49;;;;;;;13.57;6.82;;;9.60;99.90;;;;;;5044297;28;20100;-75
2021/10/08 06:21:15;;;;;;;9.50;6.68;;;9.50;99.90;;;;;;5041072;28;20103;-76
2021/10/08 06:23:40;;;;;;;11.13;6.78;;;9.50;99.90;;;;;;5030590;28;20029;-75
2021/10/08 06:26:06;;;;;;;9.13;6.43;;;9.50;99.90;;;;;;5043004;28;20033;-74
2021/10/08 06:28:33;;;;;;;10.40;6.50;;;9.50;99.90;;;;;;5035387;28;20105;-74
2021/10/08 06:30:58;;;;;;;9.90;6.20;;;9.50;99.90;;;;;;5050219;28;20029;-74
2021/10/08 06:33:24;;;;;;;9.98;6.30;;;9.50;99.90;;;;;;5043255;28;20103;-75
2021/10/08 06:35:51;;;;;;;14.05;6.93;;;9.50;99.90;;;;;;5038253;28;20021;-75
2021/10/08 06:38:17;;;;;;;11.75;7.18;;;9.60;99.90;;;;;;5041772;28;20104;-75
2021/10/08 06:40:43;;;;;;;11.57;6.60;;;9.60;99.90;;;;;;5038575;28;20665;-75
2021/10/08 06:43:12;;;;;;;11.02;7.05;;;9.60;99.90;;;;;;5037472;28;20022;-75
2021/10/08 06:45:38;;;;;;;13.90;6.75;;;9.60;99.90;;;;;;5045910;28;20406;-75
2021/10/08 06:48:04;;;;;;;13.30;6.85;;;9.60;99.90;;;;;;5030351;28;20100;-75
2021/10/08 06:50:30;;;;;;;9.73;6.78;;;9.60;99.90;;;;;;5038060;28;20448;-77
2021/10/08 06:52:56;;;;;;;10.35;6.47;;;9.60;99.90;;;;;;5038953;28;20032;-76
2021/10/08 06:55:26;;;;;;;12.75;6.70;;;9.60;99.90;;;;;;5042552;28;20091;-75
2021/10/08 06:57:51;;;;;;;9.43;7.38;;;9.60;99.90;;;;;;5011832;28;20041;-75
2021/10/08 07:00:17;;;;;;;11.80;7.20;;;9.70;99.90;;;;;;5043446;28;20029;-76
2021/10/08 07:02:51;;;;;;;11.80;6.95;;;9.70;99.90;;;;;;5049149;28;20021;-76
2021/10/08 07:05:18;;;;;;;9.98;7.32;;;9.80;99.90;;;;;;5041983;28;20053;-75
2021/10/08 07:07:44;;;;;;;12.00;7.80;;;9.80;99.90;;;;;;5041440;28;20017;-77
2021/10/08 07:10:11;;;;;;;14.02;7.50;;;9.90;99.90;;;;;;5045930;28;20037;-76
2021/10/08 07:12:37;;;;;;;10.25;7.15;;;9.90;99.90;;;;;;5030601;28;20030;-76
2021/10/08 07:15:07;;;;;;;12.13;6.75;;;9.90;99.90;;;;;;5033709;28;20056;-75
2021/10/08 07:17:38;;;;;;;11.35;7.47;;;10.00;99.90;;;;;;5049464;28;20025;-75
2021/10/08 07:20:05;;;;;;;11.60;7.75;;;10.00;99.90;;;;;;5049361;28;20041;-75
2021/10/08 07:22:30;;;;;;;11.57;6.85;;;10.10;99.90;;;;;;5044999;28;20048;-76
2021/10/08 07:24:56;;;;;;;12.95;7.57;;;10.10;99.90;;;;;;5043844;28;20052;-77
2021/10/08 07:27:22;;;;;;;13.13;7.43;;;10.20;99.90;;;;;;5046014;28;20292;-76
2021/10/08 07:29:48;;;;;;;10.50;6.80;;;10.20;99.90;;;;;;5037515;28;20029;-76
2021/10/08 07:32:14;;;;;;;14.70;7.47;;;10.20;99.90;;;;;;5015915;28;20029;-75
2021/10/08 07:34:42;;;;;;;11.63;6.80;;;10.30;99.90;;;;;;5053102;28;20029;-75
2021/10/08 07:37:13;;;;;;;11.15;8.02;;;10.30;99.90;;;;;;5047085;28;20045;-75
2021/10/08 07:39:39;;;;;;;9.77;7.10;;;10.30;99.90;;;;;;5036552;28;20435;-75
2021/10/08 07:42:05;;;;;;;10.18;7.00;;;10.40;99.90;;;;;;5041965;28;20501;-76
2021/10/08 07:44:31;;;;;;;11.38;7.68;;;10.40;99.90;;;;;;5045733;28;20029;-75
2021/10/08 07:46:56;;;;;;;11.10;6.95;;;10.50;99.90;;;;;;5037699;28;20064;-75
2021/10/08 07:49:22;;;;;;;11.55;7.72;;;10.50;99.90;;;;;;5033514;28;20033;-75
2021/10/08 07:51:48;;;;;;;12.93;9.00;;;10.50;99.90;;;;;;5051894;28;20029;-76
2021/10/08 07:54:14;;;;;;;14.23;8.85;;;10.60;99.90;;;;;;5047611;28;20025;-76
2021/10/08 07:56:40;;;;;;;13.98;8.95;;;10.60;99.90;;;;;;5039996;28;20028;-76
2021/10/08 07:59:06;;;;;;;12.00;7.88;;;10.70;99.90;;;;;;5037860;28;20104;-77
2021/10/08 08:01:32;;;;;;;13.82;8.32;;;10.70;99.90;;;;;;5049759;28;20057;-76
2021/10/08 08:03:58;;;;;;;12.18;7.97;;;10.80;99.90;;;;;;5050132;28;20033;-76
2021/10/08 08:06:23;;;;;;;11.32;8.13;;;10.80;99.90;;;;;;5033017;28;20040;-76
2021/10/08 08:08:49;;;;;;;12.07;7.32;;;10.90;99.90;;;;;;5032619;28;20036;-76
2021/10/08 08:11:15;;;;;;;12.18;8.15;;;11.00;99.90;;;;;;5046074;28;20032;-75
2021/10/08 08:13:41;;;;;;;15.10;8.35;;;11.00;99.90;;;;;;5041527;28;20120;-76
2021/10/08 08:16:06;;;;;;;11.90;8.05;;;11.10;99.90;;;;;;5046351;28;20506;-76
2021/10/08 08:18:32;;;;;;;12.35;8.15;;;11.20;99.90;;;;;;5032901;28;20396;-76
2021/10/08 08:20:58;;;;;;;14.98;10.18;;;11.20;99.90;;;;;;5043488;28;20028;-75
2021/10/08 08:23:24;;;;;;;16.13;9.15;;;11.30;99.90;;;;;;5052366;28;20553;-75
2021/10/08 08:25:51;;;;;;;15.20;8.73;;;11.30;99.90;;;;;;5040521;28;20025;-76
2021/10/08 08:28:17;;;;;;;11.50;7.82;;;11.40;99.90;;;;;;5022258;28;20033;-76
2021/10/08 08:30:43;;;;;;;10.93;8.40;;;11.50;99.90;;;;;;5039268;28;20437;-77
2021/10/08 08:33:09;;;;;;;12.60;8.68;;;11.50;99.90;;;;;;5027807;28;20039;-76
2021/10/08 08:35:34;;;;;;;13.77;7.68;;;11.60;99.90;;;;;;5032225;28;20030;-76
2021/10/08 08:38:00;;;;;;;11.63;7.97;;;11.60;99.90;;;;;;5025976;28;20037;-75
2021/10/08 08:40:29;;;;;;;11.38;8.57;;;11.70;99.90;;;;;;5052119;28;20033;-75
2021/10/08 08:42:56;;;;;;;10.88;7.75;;;11.70;99.90;;;;;;5041974;28;20080;-75
2021/10/08 08:45:22;;;;;;;8.90;6.65;;;11.80;99.90;;;;;;5045167;28;20021;-75
2021/10/08 08:48:04;;;;;;;12.32;8.30;;;11.80;99.90;;;;;;5045020;28;20087;-76
2021/10/08 08:50:35;;;;;;;11.77;7.90;;;11.90;99.90;;;;;;5035037;28;20108;-76
2021/10/08 08:53:01;;;;;;;10.20;7.45;;;12.00;99.90;;;;;;5034398;28;20152;-75
2021/10/08 08:55:27;;;;;;;11.40;9.00;;;12.00;99.90;;;;;;5052530;28;20605;-75
2021/10/08 08:57:53;;;;;;;14.00;9.27;;;12.10;99.90;;;;;;5051901;28;20102;-76
2021/10/08 09:00:20;;;;;;;12.30;9.40;;;12.20;99.90;;;;;;5043684;28;20040;-75
2021/10/08 09:02:56;;;;;;;15.05;9.00;;;12.30;99.90;;;;;;5039573;28;20559;-75
2021/10/08 09:05:24;;;;;;;15.30;7.90;;;12.30;99.90;;;;;;5043536;28;20557;-75
2021/10/08 09:07:55;;;;;;;10.63;7.95;;;12.40;99.90;;;;;;5031678;28;20450;-75
2021/10/08 09:10:24;;;;;;;12.57;8.70;;;12.40;99.90;;;;;;5045680;28;20382;-76
2021/10/08 09:12:56;;;;;;;10.43;7.05;;;12.40;99.90;;;;;;5051377;28;20493;-75
2021/10/08 09:15:22;;;;;;;11.20;8.10;;;12.50;99.90;;;;;;5041748;28;20057;-74
2021/10/08 09:17:48;;;;;;;10.45;7.50;;;12.50;99.90;;;;;;5032697;28;20040;-76
2021/10/08 09:20:18;;;;;;;9.25;7.15;;;12.60;99.90;;;;;;5035063;28;20033;-75
2021/10/08 09:22:50;;;;;;;12.10;7.88;;;12.70;99.90;;;;;;5050911;28;20037;-76
2021/10/08 09:25:16;;;;;;;11.45;7.80;;;12.80;99.90;;;;;;5046201;28;20362;-75
2021/10/08 09:27:44;;;;;;;10.73;7.00;;;13.00;99.90;;;;;;5035845;28;20104;-77
2021/10/08 09:30:11;;;;;;;9.02;7.30;;;13.20;99.60;;;;;;5033601;28;20037;-77
2021/10/08 09:32:50;;;;;;;9.98;7.20;;;13.40;99.40;;;;;;5043326;28;20025;-76
2021/10/08 09:35:21;;;;;;;8.82;6.15;;;13.60;98.90;;;;;;5049681;28;20399;-77
2021/10/08 09:38:15;;;;;;;11.88;7.38;;;13.90;98.70;;;;;;5041148;28;20029;-77
2021/10/08 09:40:56;;;;;;;13.80;6.78;;;14.30;98.30;;;;;;5030832;28;20064;-77
2021/10/08 09:43:22;;;;;;;;;;;14.70;97.40;;;;;;5041389;28;20044;-75
2021/10/08 09:45:52;;;;;;;6.78;4.93;;;15.10;97.40;;;;;;5045344;28;20387;-75
2021/10/08 09:48:41;;;;;;;7.88;4.90;;;15.70;97.40;;;;;;5038602;28;20124;-77
2021/10/08 09:51:28;;;;;;;6.60;4.05;;;16.50;95.30;;;;;;5036754;28;20223;-75
2021/10/08 09:53:56;;;;;;;5.20;3.70;;;17.20;94.60;;;;;;5030551;28;20124;-76
2021/10/08 09:56:39;;;;;;;5.03;3.60;;;18.10;92.70;;;;;;5030935;28;20033;-76
2021/10/08 09:59:14;;;;;;;6.22;2.67;;;19.40;90.20;;;;;;5042983;28;20033;-76
2021/10/08 10:01:45;;;;;;;6.82;3.15;;;21.10;82.50;;;;;;5049467;28;20116;-76
2021/10/08 10:04:11;;;;;;;;;;;22.90;75.40;;;;;;5047490;28;20032;-76
2021/10/08 10:06:38;;;;;;;3.60;2.67;;;25.00;67.40;;;;;;5006351;28;19935;-74
2021/10/08 10:09:07;;;;;;;4.95;2.85;;;26.90;58.00;;;;;;5030524;28;20120;-75
2021/10/08 10:11:34;;;;;;;3.13;2.38;;;28.20;49.60;;;;;;5030190;28;20384;-75
2021/10/08 10:14:00;;;;;;;3.70;2.60;;;29.00;48.20;;;;;;5030703;28;20026;-74
2021/10/08 10:16:33;;;;;;;2.92;1.98;;;29.80;46.00;;;;;;5030346;28;20087;-75
2021/10/08 10:19:00;;;;;;;4.18;2.30;;;30.20;45.00;;;;;;5030652;28;20120;-74
2021/10/08 10:21:29;;;;;;;3.33;2.10;;;30.40;43.80;;;;;;5016004;28;20033;-74
2021/10/08 10:23:57;;;;;;;3.85;2.33;;;30.40;43.20;;;;;;5041289;28;20090;-74
2021/10/08 10:26:26;;;;;;;4.47;2.10;;;30.20;43.40;;;;;;5040270;28;20024;-75
2021/10/08 10:28:53;;;;;;;3.60;2.20;;;30.00;42.80;;;;;;5042828;28;20033;-74
2021/10/08 10:31:19;;;;;;;3.95;2.05;;;29.90;43.00;;;;;;5030274;28;20065;-74
2021/10/08 10:33:47;;;;;;;2.63;2.15;;;29.50;44.60;;;;;;5030503;28;20044;-73
2021/10/08 10:36:27;;;;;;;2.58;2.00;;;29.10;44.30;;;;;;5032715;28;20025;-74
2021/10/08 10:39:15;;;;;;;3.47;1.98;;;28.40;45.50;;;;;;5035975;28;20109;-74
2021/10/08 10:41:43;;;;;;;4.70;2.45;;;27.70;47.30;;;;;;5020852;28;20048;-74
2021/10/08 10:44:29;;;;;;;4.18;1.73;;;27.00;48.00;;;;;;5041452;28;20025;-74
2021/10/08 10:47:32;;;;;;;3.60;2.22;;;26.30;48.80;;;;;;5035463;28;20029;-74
2021/10/08 10:50:15;;;;;;;2.75;1.90;;;26.20;49.70;;;;;;5038116;28;20041;-75
2021/10/08 10:53:01;;;;;;;2.00;1.50;;;27.10;47.50;;;;;;5048889;28;20065;-75
2021/10/08 10:55:32;;;;;;;2.95;1.60;;;28.90;44.10;;;;;;5027833;28;20033;-75
2021/10/08 10:58:01;;;;;;;2.60;1.60;;;30.40;42.60;;;;;;5044410;28;20419;-75
2021/10/08 11:00:36;;;;;;;2.70;1.80;;;31.40;39.20;;;;;;5026585;28;20029;-75
2021/10/08 11:03:07;;;;;;;3.47;1.75;;;31.60;40.00;;;;;;5033563;28;20065;-76
2021/10/08 11:05:37;;;;;;;2.38;1.48;;;31.40;39.90;;;;;;5050029;28;20479;-75
2021/10/08 11:08:04;;;;;;;2.22;1.40;;;31.10;40.40;;;;;;5051961;28;20033;-75
2021/10/08 11:10:30;;;;;;;3.05;1.25;;;31.00;40.40;;;;;;5048705;28;20072;-75
2021/10/08 11:13:32;;;;;;;3.42;1.25;;;30.90;39.70;;;;;;5044489;28;20457;-75
2021/10/08 11:15:57;;;;;;;2.00;1.45;;;30.50;39.60;;;;;;5041254;28;20037;-75
2021/10/08 11:18:48;;;;;;;3.90;1.40;;;30.30;39.60;;;;;;5036417;28;20395;-75
2021/10/08 11:21:32;;;;;;;2.63;1.40;;;29.60;40.80;;;;;;5024066;28;20125;-75
2021/10/08 11:24:00;;;;;;;2.47;1.40;;;28.50;41.10;;;;;;5035884;28;20038;-75
2021/10/08 11:26:26;;;;;;;1.65;1.20;;;27.30;43.90;;;;;;5042326;28;20513;-75
2021/10/08 11:28:54;;;;;;;2.38;1.45;;;26.20;45.10;;;;;;5040047;28;20047;-75
2021/10/08 11:31:21;;;;;;;2.65;1.13;;;25.30;47.60;;;;;;5031660;28;20044;-75
2021/10/08 11:33:49;;;;;;;2.40;1.10;;;24.40;48.90;;;;;;5040885;28;20036;-75
2021/10/08 11:36:25;;;;;;;3.30;1.27;;;23.40;51.00;;;;;;5037060;28;20017;-75
2021/10/08 11:39:12;;;;;;;3.83;1.40;;;22.60;53.10;;;;;;5033611;28;20033;-75
2021/10/08 11:41:41;;;;;;;3.50;1.38;;;22.10;54.60;;;;;;5038891;28;20075;-75
2021/10/08 11:45:01;;;;;;;1.88;1.10;;;21.60;55.80;;;;;;5020929;28;20418;-75
2021/10/08 11:47:26;;;;;;;2.13;1.10;;;21.30;56.80;;;;;;5032925;28;20041;-75
2021/10/08 11:50:29;;;;;;;2.83;1.10;;;20.80;57.20;;;;;;5035210;28;20156;-75
2021/10/08 11:52:57;;;;;;;2.30;1.00;;;20.50;59.00;;;;;;5030775;28;20029;-75
2021/10/08 11:55:28;;;;;;;2.97;1.23;;;20.10;60.20;;;;;;5033504;28;20041;-75
2021/10/08 11:58:05;;;;;;;;;;;19.70;60.60;;;;;;5035806;28;20017;-75
2021/10/08 12:00:47;;;;;;;2.92;1.25;;;19.20;62.70;;;;;;5040101;28;19917;-75
2021/10/08 12:03:21;;;;;;;1.95;1.02;;;18.90;64.30;;;;;;5031016;28;20360;-75
2021/10/08 12:05:51;;;;;;;2.25;1.23;;;18.60;64.40;;;;;;5032919;28;20029;-74
2021/10/08 12:08:22;;;;;;;2.42;0.88;;;18.30;65.60;;;;;;5038467;28;20492;-75
2021/10/08 12:10:57;;;;;;;2.45;1.08;;;18.10;66.90;;;;;;5034732;28;20056;-75
2021/10/08 12:13:57;;;;;;;2.53;1.10;;;18.00;67.50;;;;;;5052432;28;20071;-74
2021/10/08 12:16:44;;;;;;;2.07;1.10;;;17.90;68.10;;;;;;5043564;28;20080;-75
2021/10/08 12:19:12;;;;;;;2.92;0.95;;;17.70;68.20;;;;;;5038776;28;20113;-76
2021/10/08 12:21:43;;;;;;;2.35;1.00;;;17.50;69.60;;;;;;5050089;28;20478;-77
2021/10/08 12:24:10;;;;;;;2.90;1.13;;;17.40;70.40;;;;;;5033807;28;20479;-75
2021/10/08 12:26:39;;;;;;;3.42;1.00;;;17.20;70.80;;;;;;5043711;28;20753;-74
2021/10/08 12:29:11;;;;;;;2.10;1.15;;;17.20;72.10;;;;;;5042810;28;20121;-75
2021/10/08 12:31:57;;;;;;;1.42;1.00;;;17.00;73.20;;;;;;5032558;28;20104;-75
2021/10/08 12:34:55;;;;;;;1.80;1.00;;;17.00;73.90;;;;;;5039254;28;20486;-74
2021/10/08 12:37:28;;;;;;;3.63;0.90;;;16.90;75.20;;;;;;5043927;28;20060;-74
2021/10/08 12:40:10;;;;;;;1.98;1.10;;;16.90;76.50;;;;;;5036741;28;20372;-74
2021/10/08 12:42:44;;;;;;;2.67;1.13;;;16.80;76.30;;;;;;5043072;28;20033;-74
2021/10/08 12:45:21;;;;;;;2.28;1.00;;;16.80;78.00;;;;;;5050163;28;20025;-75
2021/10/08 12:47:48;;;;;;;3.00;1.30;;;16.70;78.70;;;;;;5031191;28;20033;-75
2021/10/08 12:50:20;;;;;;;1.67;1.20;;;16.60;79.70;;;;;;5019741;28;20033;-75
2021/10/08 12:52:49;;;;;;;1.27;0.90;;;16.60;79.60;;;;;;5038680;28;20026;-75
2021/10/08 12:55:19;;;;;;;1.90;1.48;;;16.60;81.10;;;;;;5048862;28;20028;-75